Time;durP1;ratioP1;P1;durP2;ratioP2;P2;SDS_P1;SDS_P2;PMS_P1;PMS_P2;Temp;Humidity;BMP_temperature;BMP_pressure;BME280_temperature;BME280_humidity;BME280_pressure;Samples;Min_cycle;Max_cycle;Signal;HPM_P1;HPM_P2
2021/10/02 00:46:41;;;;;;;10.93;2.40;;;15.70;99.90;;;;;;6301227;22;20234;-96
2021/10/02 00:49:14;;;;;;;10.77;3.00;;;15.60;99.90;;;;;;6301058;22;20220;-96
2021/10/02 00:54:36;;;;;;;9.97;2.63;;;15.40;99.90;;;;;;6297782;22;20262;-96
2021/10/02 00:57:13;;;;;;;8.83;2.33;;;15.30;99.90;;;;;;6295059;22;20182;-95
2021/10/02 00:59:48;;;;;;;7.03;2.30;;;15.20;99.90;;;;;;6297483;22;20189;-96
2021/10/02 01:05:49;;;;;;;7.70;2.40;;;15.10;99.90;;;;;;6292867;22;20556;-96
2021/10/02 01:08:38;;;;;;;9.30;2.97;;;15.00;99.90;;;;;;6288524;22;20194;-96
2021/10/02 01:11:33;;;;;;;6.20;2.43;;;15.00;99.90;;;;;;6258996;22;20208;-96
2021/10/02 01:14:22;;;;;;;8.83;2.40;;;14.90;99.90;;;;;;6204333;23;20197;-96
2021/10/02 01:17:00;;;;;;;5.20;2.10;;;14.90;99.90;;;;;;6210093;23;20513;-95
2021/10/02 01:19:53;;;;;;;10.13;2.20;;;14.70;99.90;;;;;;6222385;22;20227;-95
2021/10/02 01:22:43;;;;;;;8.50;2.47;;;14.70;99.90;;;;;;6225427;23;20184;-95
2021/10/02 01:25:23;;;;;;;8.03;2.60;;;14.50;99.90;;;;;;6224153;23;20181;-95
2021/10/02 01:28:02;;;;;;;9.53;2.20;;;14.40;99.90;;;;;;6239020;23;20164;-95
2021/10/02 01:30:51;;;;;;;8.60;2.60;;;14.30;99.90;;;;;;6230674;23;20244;-95
2021/10/02 01:33:35;;;;;;;9.87;2.23;;;14.20;99.90;;;;;;6232878;23;20187;-93
2021/10/02 01:36:24;;;;;;;10.87;2.67;;;14.00;99.90;;;;;;6229333;23;20190;-95
2021/10/02 01:47:28;;;;;;;8.93;3.33;;;13.60;99.90;;;;;;6227358;23;20518;-96
2021/10/02 01:50:01;;;;;;;12.70;3.73;;;13.40;99.90;;;;;;6227202;23;20183;-94
2021/10/02 01:52:35;;;;;;;13.67;4.60;;;13.40;99.90;;;;;;6225182;23;20184;-96
2021/10/02 01:55:09;;;;;;;11.03;3.40;;;13.30;99.90;;;;;;6237970;23;20688;-96
2021/10/02 01:57:44;;;;;;;11.97;3.90;;;13.30;99.90;;;;;;6238678;23;20568;-95
2021/10/02 02:00:20;;;;;;;8.33;3.13;;;13.20;99.90;;;;;;6239453;23;20228;-95
2021/10/02 02:05:31;;;;;;;11.50;3.87;;;13.00;99.90;;;;;;6303379;22;20178;-96
2021/10/02 02:08:06;;;;;;;10.40;2.97;;;12.90;99.90;;;;;;6303648;22;20175;-95
2021/10/02 02:10:41;;;;;;;10.83;3.60;;;12.80;99.90;;;;;;6301809;22;20183;-95
2021/10/02 02:13:16;;;;;;;9.57;3.50;;;12.80;99.90;;;;;;6302297;22;20182;-96
2021/10/02 02:15:53;;;;;;;9.47;3.17;;;12.70;99.90;;;;;;6251819;22;20216;-96
2021/10/02 02:18:28;;;;;;;9.97;3.00;;;12.60;99.90;;;;;;6207565;23;20220;-95
2021/10/02 02:21:03;;;;;;;8.83;2.67;;;12.50;99.90;;;;;;6199233;23;20616;-95
2021/10/02 02:23:36;;;;;;;12.13;3.07;;;12.40;99.90;;;;;;6205357;23;20252;-95
2021/10/02 02:26:10;;;;;;;10.37;2.70;;;12.30;99.90;;;;;;6203111;23;20200;-95
2021/10/02 02:28:43;;;;;;;8.40;2.30;;;12.30;99.90;;;;;;6205086;23;20275;-96
2021/10/02 02:31:18;;;;;;;7.30;2.40;;;12.20;99.90;;;;;;6202174;23;20203;-95
2021/10/02 02:33:52;;;;;;;9.33;2.70;;;12.10;99.90;;;;;;6208509;23;20149;-95
2021/10/02 02:36:24;;;;;;;9.27;3.03;;;12.00;99.90;;;;;;6207998;23;20177;-96
2021/10/02 02:38:58;;;;;;;12.73;3.43;;;12.00;99.90;;;;;;6208122;23;20185;-96
2021/10/02 02:41:30;;;;;;;9.90;3.10;;;12.00;99.90;;;;;;6209667;23;20184;-95
2021/10/02 02:44:02;;;;;;;11.17;3.03;;;11.90;99.90;;;;;;6226007;22;20219;-95
2021/10/02 02:46:43;;;;;;;8.83;2.50;;;11.90;99.90;;;;;;6239740;23;20186;-95
2021/10/02 02:51:58;;;;;;;11.30;2.90;;;11.80;99.90;;;;;;6300139;22;20250;-95
2021/10/02 02:54:36;;;;;;;5.37;2.80;;;11.70;99.90;;;;;;6298335;22;20583;-95
2021/10/02 02:57:17;;;;;;;10.37;2.90;;;11.70;99.90;;;;;;6297397;22;20200;-95
2021/10/02 03:00:06;;;;;;;11.43;3.03;;;11.70;99.90;;;;;;6298023;22;20194;-96
2021/10/02 03:02:46;;;;;;;9.43;2.87;;;11.70;99.90;;;;;;6300802;22;20247;-94
2021/10/02 03:05:19;;;;;;;11.93;3.10;;;11.70;99.90;;;;;;6279792;22;20154;-95
2021/10/02 03:07:58;;;;;;;10.30;2.83;;;11.70;99.90;;;;;;6305005;22;20177;-95
2021/10/02 03:10:30;;;;;;;7.03;2.80;;;11.60;99.90;;;;;;6304661;22;20194;-94
2021/10/02 03:13:07;;;;;;;12.00;3.37;;;11.60;99.90;;;;;;6303067;22;20167;-95
2021/10/02 03:15:41;;;;;;;9.00;3.57;;;11.60;99.90;;;;;;6300911;22;20205;-94
2021/10/02 03:18:17;;;;;;;16.80;3.57;;;11.60;99.90;;;;;;6302638;22;20190;-95
2021/10/02 03:20:53;;;;;;;10.27;2.80;;;11.60;99.90;;;;;;6302771;22;20182;-95
2021/10/02 03:23:27;;;;;;;9.30;3.03;;;11.50;99.90;;;;;;6303884;22;20163;-95
2021/10/02 03:34:02;;;;;;;13.37;3.10;;;11.50;99.90;;;;;;6224507;22;20215;-95
2021/10/02 03:36:36;;;;;;;7.60;2.83;;;11.50;99.90;;;;;;6231981;22;20218;-96
2021/10/02 03:47:24;;;;;;;11.17;3.10;;;11.30;99.90;;;;;;6238956;23;20179;-96
2021/10/02 03:50:06;;;;;;;9.70;3.33;;;11.30;99.90;;;;;;6241948;23;20187;-96
2021/10/02 03:52:43;;;;;;;9.90;3.13;;;11.20;99.90;;;;;;6239965;23;20183;-94
2021/10/02 03:58:16;;;;;;;10.93;3.90;;;11.30;99.90;;;;;;6237544;23;20237;-89
2021/10/02 04:00:49;;;;;;;12.03;3.00;;;11.30;99.90;;;;;;6236616;23;20228;-96
2021/10/02 04:03:23;;;;;;;7.63;2.83;;;11.30;99.90;;;;;;6234437;23;20202;-96
2021/10/02 04:06:00;;;;;;;7.60;3.13;;;11.30;99.90;;;;;;6239200;23;20164;-96
2021/10/02 04:08:34;;;;;;;9.67;3.20;;;11.30;99.90;;;;;;6239558;23;20216;-96
2021/10/02 04:11:15;;;;;;;10.83;3.13;;;11.30;99.90;;;;;;6240743;23;20164;-96
2021/10/02 04:13:50;;;;;;;8.60;2.97;;;11.20;99.90;;;;;;6239815;23;20607;-96
2021/10/02 04:16:23;;;;;;;9.10;2.80;;;11.20;99.90;;;;;;6236996;23;20204;-96
2021/10/02 04:18:55;;;;;;;7.90;3.00;;;11.20;99.90;;;;;;6242409;23;20199;-96
2021/10/02 04:21:30;;;;;;;9.80;3.67;;;11.20;99.90;;;;;;6242760;23;20164;-96
2021/10/02 04:24:04;;;;;;;7.97;2.70;;;11.20;99.90;;;;;;6241895;23;20172;-96
2021/10/02 04:29:24;;;;;;;5.47;2.37;;;11.10;99.90;;;;;;6239900;23;20171;-96
2021/10/02 04:31:56;;;;;;;6.87;2.97;;;11.20;99.90;;;;;;6234172;23;20203;-96
2021/10/02 04:34:30;;;;;;;8.93;3.73;;;11.10;99.90;;;;;;6233065;22;20208;-96
2021/10/02 04:37:05;;;;;;;11.40;3.87;;;11.10;99.90;;;;;;6235874;23;20199;-96
2021/10/02 04:39:37;;;;;;;8.83;3.17;;;11.00;99.90;;;;;;6236772;23;20172;-96
2021/10/02 04:42:11;;;;;;;13.23;3.33;;;11.00;99.90;;;;;;6235029;23;20167;-96
2021/10/02 04:44:43;;;;;;;10.13;3.00;;;10.90;99.90;;;;;;6235443;23;20241;-96
2021/10/02 04:49:50;;;;;;;9.53;3.20;;;10.80;99.90;;;;;;6239256;23;20180;-96
2021/10/02 04:52:41;;;;;;;9.97;3.13;;;10.70;99.90;;;;;;6237258;23;20177;-96
2021/10/02 04:55:15;;;;;;;11.60;3.23;;;10.70;99.90;;;;;;6208630;23;20196;-94
2021/10/02 04:57:46;;;;;;;11.83;3.80;;;10.70;99.90;;;;;;6235021;23;20175;-95
2021/10/02 05:00:18;;;;;;;13.10;3.43;;;10.70;99.90;;;;;;6235616;23;20176;-96
2021/10/02 05:02:52;;;;;;;7.37;3.07;;;10.70;99.90;;;;;;6235312;23;20187;-96
2021/10/02 05:05:25;;;;;;;7.87;3.23;;;10.70;99.90;;;;;;6233554;23;20201;-95
2021/10/02 05:08:00;;;;;;;12.17;3.47;;;10.60;99.90;;;;;;6225341;23;20263;-94
2021/10/02 05:10:31;;;;;;;8.63;3.20;;;10.70;99.90;;;;;;6232329;23;20176;-96
2021/10/02 05:13:04;;;;;;;8.43;3.67;;;10.60;99.90;;;;;;6197961;23;20165;-96
2021/10/02 05:15:37;;;;;;;11.23;3.83;;;10.60;99.90;;;;;;6204909;23;20287;-96
2021/10/02 05:18:12;;;;;;;7.03;3.73;;;10.60;99.90;;;;;;6224848;23;20181;-95
2021/10/02 05:20:53;;;;;;;9.63;3.90;;;10.60;99.90;;;;;;6231699;23;20180;-96
2021/10/02 05:23:30;;;;;;;9.53;4.27;;;10.60;99.90;;;;;;6190731;23;20182;-96
2021/10/02 05:26:02;;;;;;;8.07;3.47;;;10.50;99.90;;;;;;6234047;23;20176;-96
2021/10/02 05:28:36;;;;;;;15.27;4.10;;;10.50;99.90;;;;;;6237831;23;20236;-96
2021/10/02 05:31:11;;;;;;;10.97;4.13;;;10.50;99.90;;;;;;6235757;23;20230;-96
2021/10/02 05:33:43;;;;;;;8.30;3.90;;;10.50;99.90;;;;;;6238052;23;20240;-95
2021/10/02 05:36:16;;;;;;;9.60;4.40;;;10.40;99.90;;;;;;6238672;23;20204;-94
2021/10/02 05:41:29;;;;;;;8.63;4.50;;;10.30;99.90;;;;;;6235238;22;20225;-96
2021/10/02 05:46:38;;;;;;;13.63;4.63;;;10.30;99.90;;;;;;6180514;23;20248;-96
2021/10/02 05:49:20;;;;;;;10.03;4.23;;;10.20;99.90;;;;;;6179480;23;20185;-96
2021/10/02 05:51:51;;;;;;;10.93;4.63;;;10.20;99.90;;;;;;6178492;23;20205;-96
2021/10/02 05:57:09;;;;;;;12.80;4.43;;;10.20;99.90;;;;;;6204778;23;20209;-96
2021/10/02 05:59:46;;;;;;;10.13;4.10;;;10.20;99.90;;;;;;6199041;23;20173;-96
2021/10/02 06:02:22;;;;;;;10.37;4.47;;;10.20;99.90;;;;;;6206235;23;20184;-96
2021/10/02 06:04:56;;;;;;;7.43;4.20;;;10.20;99.90;;;;;;6196265;23;20184;-94
2021/10/02 06:07:29;;;;;;;14.20;4.63;;;10.10;99.90;;;;;;6204767;23;20237;-94
2021/10/02 06:10:01;;;;;;;13.67;4.43;;;10.10;99.90;;;;;;6204286;23;20169;-96
2021/10/02 06:12:36;;;;;;;11.97;4.70;;;10.10;99.90;;;;;;6208983;23;20214;-96
2021/10/02 06:15:09;;;;;;;9.33;4.23;;;10.00;99.90;;;;;;6211451;23;20156;-96
2021/10/02 06:17:42;;;;;;;13.83;4.70;;;10.00;99.90;;;;;;6211267;23;20228;-96
2021/10/02 06:20:14;;;;;;;15.03;5.30;;;10.10;99.90;;;;;;6211570;23;20168;-96
2021/10/02 06:22:47;;;;;;;13.63;4.67;;;10.10;99.90;;;;;;6211638;23;20176;-96
2021/10/02 06:28:11;;;;;;;10.90;4.30;;;10.00;99.90;;;;;;6199578;23;20237;-96
2021/10/02 06:30:43;;;;;;;11.40;4.50;;;10.00;99.90;;;;;;6202115;23;20276;-96
2021/10/02 06:33:16;;;;;;;13.30;4.90;;;10.00;99.90;;;;;;6205428;23;20208;-96
2021/10/02 06:35:49;;;;;;;13.60;4.67;;;10.00;99.90;;;;;;6207163;23;20534;-96
2021/10/02 06:38:21;;;;;;;11.73;4.87;;;10.00;99.90;;;;;;6206297;23;20177;-96
2021/10/02 06:41:01;;;;;;;9.70;4.53;;;10.00;99.90;;;;;;6214837;22;20290;-96
2021/10/02 06:43:41;;;;;;;13.30;4.80;;;9.90;99.90;;;;;;6243154;22;20191;-96
2021/10/02 06:46:16;;;;;;;11.77;4.67;;;10.00;99.90;;;;;;6235873;22;20176;-96
2021/10/02 06:48:48;;;;;;;9.77;5.00;;;9.90;99.90;;;;;;6233864;23;20183;-96
2021/10/02 06:51:20;;;;;;;11.90;4.80;;;9.80;99.90;;;;;;6225849;23;20280;-96
2021/10/02 06:53:53;;;;;;;11.10;4.53;;;9.90;99.90;;;;;;6224491;23;20218;-96
2021/10/02 06:56:25;;;;;;;9.73;4.50;;;9.80;99.90;;;;;;6223526;23;20210;-96
2021/10/02 06:58:59;;;;;;;12.23;4.77;;;9.90;99.90;;;;;;6223246;23;20176;-96
2021/10/02 07:01:31;;;;;;;10.30;4.40;;;9.80;99.90;;;;;;6222617;23;20183;-96
2021/10/02 07:04:05;;;;;;;9.67;4.50;;;9.80;99.90;;;;;;6198674;23;20196;-96
2021/10/02 07:06:56;;;;;;;10.77;4.73;;;9.80;99.90;;;;;;6223245;23;20228;-96
2021/10/02 07:09:28;;;;;;;13.47;5.60;;;9.70;99.90;;;;;;6224090;23;20191;-96
2021/10/02 07:12:04;;;;;;;11.50;4.87;;;9.70;99.90;;;;;;6225254;23;20176;-96
2021/10/02 07:14:37;;;;;;;8.47;4.77;;;9.70;99.90;;;;;;6224880;23;20180;-96
2021/10/02 07:17:10;;;;;;;10.17;4.93;;;9.60;99.90;;;;;;6227616;23;20202;-94
2021/10/02 07:22:27;;;;;;;8.80;4.50;;;9.60;99.90;;;;;;6233351;23;20183;-96
2021/10/02 07:25:05;;;;;;;10.17;4.77;;;9.60;99.90;;;;;;6233929;23;20176;-96
2021/10/02 07:27:37;;;;;;;11.23;5.00;;;9.60;99.90;;;;;;6232508;23;20179;-95
2021/10/02 07:30:24;;;;;;;15.97;5.20;;;9.60;99.90;;;;;;6229332;23;20177;-96
2021/10/02 07:33:06;;;;;;;11.73;4.40;;;9.60;99.90;;;;;;6232615;22;20179;-96
2021/10/02 07:35:39;;;;;;;10.43;4.47;;;9.60;99.90;;;;;;6212320;23;20176;-96
2021/10/02 07:38:11;;;;;;;11.40;4.40;;;9.60;99.90;;;;;;6235869;23;20237;-96
2021/10/02 07:40:48;;;;;;;9.83;4.53;;;9.60;99.90;;;;;;6234208;23;20175;-96
2021/10/02 07:43:21;;;;;;;9.30;4.50;;;9.60;99.90;;;;;;6233534;23;20277;-96
2021/10/02 07:45:58;;;;;;;14.07;4.80;;;9.60;99.90;;;;;;6231931;23;20180;-96
2021/10/02 07:48:44;;;;;;;11.80;5.17;;;9.50;99.90;;;;;;6235553;23;20210;-96
2021/10/02 07:51:19;;;;;;;11.43;4.80;;;9.50;99.90;;;;;;6206903;23;20177;-96
2021/10/02 07:53:55;;;;;;;11.40;4.87;;;9.50;99.90;;;;;;6222383;23;20179;-96
2021/10/02 07:56:29;;;;;;;9.67;4.87;;;9.50;99.90;;;;;;6222648;23;20212;-96
2021/10/02 07:59:05;;;;;;;11.57;4.80;;;9.50;99.90;;;;;;6174266;23;20200;-96
2021/10/02 08:01:40;;;;;;;14.07;4.90;;;9.50;99.90;;;;;;6221963;23;20176;-96
2021/10/02 08:04:15;;;;;;;12.80;4.77;;;9.50;99.90;;;;;;6220793;23;20196;-96
2021/10/02 08:06:49;;;;;;;11.20;4.63;;;9.50;99.90;;;;;;6220152;23;20176;-96
2021/10/02 08:09:22;;;;;;;11.63;4.63;;;9.50;99.90;;;;;;6222343;23;20583;-96
2021/10/02 08:11:54;;;;;;;9.63;4.70;;;9.50;99.90;;;;;;6222194;23;20187;-96
2021/10/02 08:14:26;;;;;;;13.43;5.10;;;9.50;99.90;;;;;;6220699;23;20183;-96
2021/10/02 08:17:07;;;;;;;9.63;4.60;;;9.50;99.90;;;;;;6220710;23;20200;-96
2021/10/02 08:19:43;;;;;;;12.70;5.70;;;9.50;99.90;;;;;;6221939;23;20199;-96
2021/10/02 08:22:14;;;;;;;8.17;4.83;;;9.50;99.90;;;;;;6227851;23;20177;-96
2021/10/02 08:24:47;;;;;;;11.67;5.43;;;9.50;99.90;;;;;;6232052;23;20183;-96
2021/10/02 08:27:20;;;;;;;11.30;6.20;;;9.50;99.90;;;;;;6208049;23;20179;-96
2021/10/02 08:29:52;;;;;;;14.77;6.33;;;9.50;99.90;;;;;;6209068;23;20177;-96
2021/10/02 08:32:28;;;;;;;15.97;6.17;;;9.50;99.90;;;;;;6233310;23;20187;-96
2021/10/02 08:35:03;;;;;;;13.37;6.73;;;9.40;99.90;;;;;;6229924;23;20176;-96
2021/10/02 08:37:35;;;;;;;12.23;6.30;;;9.40;99.90;;;;;;6230140;23;20200;-96
2021/10/02 08:40:09;;;;;;;11.43;6.30;;;9.40;99.90;;;;;;6203909;23;20498;-96
2021/10/02 08:42:44;;;;;;;15.77;5.97;;;9.30;99.90;;;;;;6228507;23;20184;-96
2021/10/02 08:45:17;;;;;;;13.60;6.40;;;9.30;99.90;;;;;;6228660;23;20175;-96
2021/10/02 08:47:51;;;;;;;8.93;5.47;;;9.40;99.90;;;;;;6233528;22;20157;-96
2021/10/02 08:50:23;;;;;;;12.60;5.47;;;9.30;99.90;;;;;;6242147;23;20176;-96
2021/10/02 08:52:55;;;;;;;13.40;6.47;;;9.30;99.90;;;;;;6240598;22;20223;-96
2021/10/02 08:55:27;;;;;;;13.53;5.73;;;9.30;99.90;;;;;;6240720;23;20191;-96
2021/10/02 08:57:59;;;;;;;20.80;6.50;;;9.30;99.90;;;;;;6237752;23;20210;-96
2021/10/02 09:00:33;;;;;;;13.37;6.00;;;9.30;99.90;;;;;;6229848;23;20203;-94
2021/10/02 09:03:08;;;;;;;10.13;5.83;;;9.30;99.90;;;;;;6232397;23;20262;-96
2021/10/02 09:05:41;;;;;;;12.17;5.93;;;9.30;99.90;;;;;;6254256;23;20513;-96
2021/10/02 09:08:14;;;;;;;14.17;6.97;;;9.30;99.90;;;;;;6252706;22;20171;-96
2021/10/02 09:10:47;;;;;;;10.77;6.00;;;9.30;99.90;;;;;;6251453;23;20240;-96
2021/10/02 09:13:18;;;;;;;13.20;6.30;;;9.30;99.90;;;;;;6253452;23;20202;-96
2021/10/02 09:15:51;;;;;;;10.53;5.80;;;9.30;99.90;;;;;;6252846;22;20234;-96
2021/10/02 09:18:29;;;;;;;14.87;6.30;;;9.30;99.90;;;;;;6253154;23;20199;-96
2021/10/02 09:21:07;;;;;;;11.77;5.80;;;9.30;99.90;;;;;;6252674;22;20176;-95
2021/10/02 09:23:46;;;;;;;11.47;6.63;;;9.20;99.90;;;;;;6252694;23;20179;-95
2021/10/02 09:26:44;;;;;;;8.23;5.60;;;9.10;99.90;;;;;;6254566;23;20178;-96
2021/10/02 09:29:17;;;;;;;11.20;6.00;;;9.00;99.90;;;;;;6267618;23;20198;-96
2021/10/02 09:31:51;;;;;;;10.87;5.17;;;9.00;99.90;;;;;;6262137;22;20168;-95
2021/10/02 09:34:29;;;;;;;14.20;5.87;;;9.00;99.90;;;;;;6270409;22;20175;-96
2021/10/02 09:37:05;;;;;;;11.93;5.47;;;8.90;99.90;;;;;;6269857;23;20180;-95
2021/10/02 09:39:46;;;;;;;9.90;5.30;;;8.90;99.90;;;;;;6265438;22;20179;-96
2021/10/02 09:45:24;;;;;;;8.63;5.47;;;8.80;99.90;;;;;;6254215;23;20206;-96
2021/10/02 09:47:57;;;;;;;11.57;5.53;;;8.80;99.90;;;;;;6255658;22;20181;-96
2021/10/02 09:50:35;;;;;;;10.90;5.20;;;8.80;99.90;;;;;;6256756;22;20230;-96
2021/10/02 09:53:10;;;;;;;9.77;5.47;;;8.80;99.90;;;;;;6259877;22;20699;-96
2021/10/02 09:55:44;;;;;;;11.47;5.67;;;8.80;99.90;;;;;;6253961;22;20200;-96
2021/10/02 09:58:19;;;;;;;9.43;5.40;;;8.80;99.90;;;;;;6253673;22;20215;-96
2021/10/02 10:00:52;;;;;;;11.10;5.60;;;8.70;99.90;;;;;;6255472;23;20200;-96
2021/10/02 10:03:24;;;;;;;12.57;5.60;;;8.70;99.90;;;;;;6260228;22;20282;-94
2021/10/02 10:05:58;;;;;;;11.47;5.60;;;8.70;99.90;;;;;;6260073;22;20176;-93
2021/10/02 10:08:29;;;;;;;9.10;5.43;;;8.70;99.90;;;;;;6259473;23;20230;-95
2021/10/02 10:11:08;;;;;;;8.70;4.77;;;8.60;99.90;;;;;;6254740;22;20189;-95
2021/10/02 10:13:39;;;;;;;8.70;5.10;;;8.60;99.90;;;;;;6252831;23;20174;-96
2021/10/02 10:16:12;;;;;;;12.90;5.40;;;8.60;99.90;;;;;;6253014;22;20176;-96
2021/10/02 10:18:46;;;;;;;8.87;5.10;;;8.60;99.90;;;;;;6254384;23;20195;-96
2021/10/02 10:21:26;;;;;;;10.87;5.37;;;8.60;99.90;;;;;;6253607;23;20201;-96
2021/10/02 10:24:08;;;;;;;9.03;5.23;;;8.50;99.90;;;;;;6254040;22;20236;-96
2021/10/02 10:26:45;;;;;;;7.80;5.07;;;8.50;99.90;;;;;;6258333;22;20186;-96
2021/10/02 10:32:36;;;;;;;8.40;4.77;;;8.40;99.90;;;;;;5028028;27;3323264;-96
2021/10/02 10:35:09;;;;;;;10.10;4.83;;;8.40;99.90;;;;;;5158244;27;20205;-96
2021/10/02 10:37:48;;;;;;;11.00;5.60;;;8.40;99.90;;;;;;5138976;27;20231;-96
2021/10/02 10:40:33;;;;;;;10.27;5.27;;;8.40;99.90;;;;;;5140965;27;20201;-96
2021/10/02 10:43:05;;;;;;;8.87;4.90;;;8.40;99.90;;;;;;5162045;27;20226;-96
2021/10/02 10:45:38;;;;;;;12.53;5.67;;;8.40;99.90;;;;;;5161794;27;20220;-96
2021/10/02 10:48:13;;;;;;;14.47;5.60;;;8.40;99.90;;;;;;5159594;27;20263;-96
2021/10/02 10:50:46;;;;;;;14.30;5.60;;;8.40;99.90;;;;;;5161288;27;20301;-96
2021/10/02 10:53:18;;;;;;;15.47;5.90;;;8.40;99.90;;;;;;5158617;27;20234;-96
2021/10/02 10:55:52;;;;;;;13.53;5.50;;;8.40;99.90;;;;;;5139621;28;20205;-96
2021/10/02 10:58:27;;;;;;;18.13;6.90;;;8.50;99.90;;;;;;5136687;28;20236;-96
2021/10/02 11:01:07;;;;;;;15.57;6.57;;;8.60;99.90;;;;;;5136910;28;20239;-96
2021/10/02 11:03:56;;;;;;;15.13;7.17;;;8.60;99.90;;;;;;5142570;28;20232;-96
2021/10/02 11:06:51;;;;;;;20.23;8.17;;;8.60;99.90;;;;;;5154632;27;20182;-96
2021/10/02 11:09:37;;;;;;;22.53;8.20;;;8.70;99.90;;;;;;5166607;22;20234;-95
2021/10/02 11:12:10;;;;;;;23.83;9.03;;;8.70;99.90;;;;;;5106937;28;20774;-95
2021/10/02 11:17:47;;;;;;;15.17;6.77;;;8.70;99.90;;;;;;5101063;28;20203;-96
2021/10/02 11:20:36;;;;;;;17.90;7.70;;;8.70;99.90;;;;;;5098730;28;20241;-95
2021/10/02 11:23:58;;;;;;;13.67;7.73;;;8.70;99.90;;;;;;5082091;28;20235;-96
2021/10/02 11:26:30;;;;;;;19.23;7.57;;;8.70;99.90;;;;;;5100669;28;20257;-95
2021/10/02 11:29:31;;;;;;;19.27;8.03;;;8.70;99.90;;;;;;5082809;28;20712;-96
2021/10/02 11:32:43;;;;;;;21.70;8.27;;;8.70;99.90;;;;;;5075799;28;20231;-96
2021/10/02 11:35:24;;;;;;;22.10;7.87;;;8.70;99.90;;;;;;5095493;28;20226;-96
2021/10/02 11:38:07;;;;;;;25.77;7.73;;;8.80;99.90;;;;;;5097018;28;20211;-96
2021/10/02 11:40:54;;;;;;;13.40;6.53;;;8.90;99.90;;;;;;5104874;28;20207;-96
2021/10/02 11:43:28;;;;;;;12.40;6.80;;;8.90;99.90;;;;;;5093915;28;20222;-96
2021/10/02 11:46:05;;;;;;;13.87;6.07;;;8.80;99.90;;;;;;5093607;28;20204;-96
2021/10/02 11:52:12;;;;;;;14.17;6.37;;;9.00;99.90;;;;;;5099176;28;20248;-96
2021/10/02 11:54:46;;;;;;;13.80;7.13;;;9.10;99.90;;;;;;5098839;28;20180;-96
2021/10/02 11:57:18;;;;;;;10.50;6.53;;;9.10;99.90;;;;;;5082165;28;20191;-96
2021/10/02 11:59:50;;;;;;;15.10;6.40;;;9.20;99.90;;;;;;5082869;28;20191;-96
2021/10/02 12:02:21;;;;;;;14.60;6.13;;;9.20;99.90;;;;;;5088040;28;20227;-96
2021/10/02 12:04:55;;;;;;;14.50;6.53;;;9.20;99.90;;;;;;5144800;22;20255;-96
2021/10/02 12:07:31;;;;;;;17.70;6.17;;;9.20;99.90;;;;;;5079519;28;20208;-96
2021/10/02 12:10:08;;;;;;;13.60;6.87;;;9.20;99.90;;;;;;5077444;28;20194;-96
2021/10/02 12:12:40;;;;;;;13.03;6.43;;;9.30;99.90;;;;;;5065846;28;20235;-96
2021/10/02 12:15:12;;;;;;;16.67;6.80;;;9.30;99.90;;;;;;5067824;28;20199;-96
2021/10/02 12:17:54;;;;;;;18.83;6.37;;;9.30;99.90;;;;;;5077995;28;20192;-96
2021/10/02 12:20:39;;;;;;;12.33;6.77;;;9.30;99.90;;;;;;5057042;28;20207;-96
2021/10/02 12:23:14;;;;;;;21.80;6.43;;;9.30;99.90;;;;;;5063368;28;20215;-96
2021/10/02 12:25:51;;;;;;;11.47;6.00;;;9.40;99.90;;;;;;5063398;28;20653;-96
2021/10/02 12:28:26;;;;;;;37.17;6.17;;;9.50;99.90;;;;;;5048322;28;20211;-96
2021/10/02 12:30:59;;;;;;;11.63;5.67;;;9.40;99.90;;;;;;5062489;28;20263;-95
2021/10/02 12:33:31;;;;;;;8.43;5.17;;;9.40;99.90;;;;;;5060355;28;20295;-95
2021/10/02 12:36:05;;;;;;;11.97;5.70;;;9.40;99.90;;;;;;5060117;28;20207;-96
2021/10/02 12:38:44;;;;;;;8.43;4.90;;;9.40;99.90;;;;;;5060881;28;20303;-96
2021/10/02 12:41:18;;;;;;;10.43;5.13;;;9.40;99.90;;;;;;5061356;28;20200;-96
2021/10/02 12:43:50;;;;;;;10.07;5.10;;;9.50;99.90;;;;;;5063863;28;20230;-96
2021/10/02 12:46:32;;;;;;;9.07;5.70;;;9.40;99.90;;;;;;5067913;28;20219;-96
2021/10/02 12:52:00;;;;;;;29.63;6.40;;;9.50;99.90;;;;;;5074879;28;20224;-96
2021/10/02 12:54:32;;;;;;;36.53;7.03;;;9.60;99.90;;;;;;5061962;28;20196;-96
2021/10/02 12:57:14;;;;;;;25.53;6.70;;;9.50;99.90;;;;;;5074710;28;20206;-96
2021/10/02 13:00:02;;;;;;;20.70;6.87;;;9.50;99.90;;;;;;5051123;28;20304;-96
2021/10/02 13:02:34;;;;;;;16.63;6.67;;;9.50;99.90;;;;;;5065119;28;20224;-96
2021/10/02 13:05:07;;;;;;;11.63;6.80;;;9.50;99.90;;;;;;5096310;28;20219;-96
2021/10/02 13:07:42;;;;;;;29.87;6.70;;;9.50;99.90;;;;;;5069683;28;20207;-95
2021/10/02 13:10:15;;;;;;;10.90;6.37;;;9.50;99.90;;;;;;5098058;28;20202;-96
2021/10/02 13:12:57;;;;;;;9.43;6.40;;;9.40;99.90;;;;;;5080820;28;20218;-96
2021/10/02 13:15:31;;;;;;;10.20;6.40;;;9.40;99.90;;;;;;5096414;28;20196;-95
2021/10/02 13:18:09;;;;;;;8.17;5.27;;;9.40;99.90;;;;;;5095025;28;20219;-96
2021/10/02 13:20:54;;;;;;;8.20;5.63;;;9.50;99.90;;;;;;5093734;28;20203;-96
2021/10/02 13:26:51;;;;;;;5.17;4.47;;;9.50;99.90;;;;;;5092229;28;20210;-96
2021/10/02 13:29:30;;;;;;;5.27;4.23;;;9.50;99.90;;;;;;5073037;28;20200;-96
2021/10/02 13:32:16;;;;;;;6.77;4.63;;;9.50;99.90;;;;;;5088761;28;20235;-96
2021/10/02 13:34:55;;;;;;;4.83;3.90;;;9.50;99.90;;;;;;5088466;28;20275;-96
2021/10/02 13:37:27;;;;;;;6.70;5.70;;;9.50;99.90;;;;;;5089656;28;20199;-96
2021/10/02 13:40:02;;;;;;;6.93;5.30;;;9.50;99.90;;;;;;5089627;28;20207;-96
2021/10/02 13:42:34;;;;;;;8.43;5.57;;;9.50;99.90;;;;;;5093731;28;20214;-96
2021/10/02 13:45:11;;;;;;;8.93;5.77;;;9.50;99.90;;;;;;5095438;28;20563;-96
2021/10/02 13:47:42;;;;;;;9.40;5.47;;;9.50;99.90;;;;;;5075334;28;20226;-96
2021/10/02 13:53:16;;;;;;;7.93;5.17;;;9.70;99.90;;;;;;5067052;28;20245;-96
2021/10/02 14:02:41;;;;;;;7.37;4.50;;;9.70;99.90;;;;;;5086842;28;20234;-96
2021/10/02 14:05:32;;;;;;;11.50;5.00;;;9.70;99.90;;;;;;5081053;28;20199;-96
2021/10/02 14:08:07;;;;;;;5.43;4.73;;;9.70;99.90;;;;;;5086931;28;20207;-96
2021/10/02 14:10:40;;;;;;;10.03;5.10;;;9.60;99.90;;;;;;5073359;28;20222;-96
2021/10/02 14:13:12;;;;;;;9.53;5.03;;;9.70;99.90;;;;;;5080600;28;20231;-96
2021/10/02 14:15:43;;;;;;;8.33;4.73;;;9.80;99.90;;;;;;5079916;28;20196;-96
2021/10/02 14:18:19;;;;;;;6.07;4.67;;;9.80;99.90;;;;;;5079892;28;20235;-96
2021/10/02 14:20:51;;;;;;;7.83;5.53;;;9.80;99.90;;;;;;5079445;28;20196;-96
2021/10/02 14:23:25;;;;;;;5.83;4.90;;;9.80;99.90;;;;;;5063803;28;20207;-95
2021/10/02 14:25:56;;;;;;;6.60;5.33;;;9.90;99.90;;;;;;5063992;28;20250;-96
2021/10/02 14:28:29;;;;;;;9.03;5.67;;;9.90;99.90;;;;;;5062398;28;20200;-95
2021/10/02 14:31:01;;;;;;;8.90;5.23;;;9.90;99.90;;;;;;5062266;28;20196;-96
2021/10/02 14:33:35;;;;;;;13.13;5.10;;;9.90;99.90;;;;;;5074822;28;20695;-96
2021/10/02 14:36:07;;;;;;;6.10;5.10;;;10.00;99.90;;;;;;5080663;28;20243;-96
2021/10/02 14:38:40;;;;;;;9.83;5.87;;;10.00;99.90;;;;;;5081964;28;20309;-96
2021/10/02 14:41:12;;;;;;;10.13;5.93;;;10.00;99.90;;;;;;5068617;28;20215;-96
2021/10/02 14:43:45;;;;;;;8.47;6.10;;;10.10;99.90;;;;;;5068186;28;20203;-96
2021/10/02 14:46:20;;;;;;;9.53;5.73;;;10.10;99.90;;;;;;5087773;28;20225;-96
2021/10/02 14:48:57;;;;;;;14.10;6.33;;;10.10;99.90;;;;;;5095816;28;20204;-96
2021/10/02 14:51:32;;;;;;;15.03;7.77;;;10.20;99.90;;;;;;5079997;28;20203;-90
2021/10/02 14:54:05;;;;;;;11.70;6.67;;;10.20;99.90;;;;;;5079033;28;20235;-95
2021/10/02 14:56:37;;;;;;;11.43;6.87;;;10.20;99.90;;;;;;5077626;28;20203;-95
2021/10/02 14:59:11;;;;;;;12.80;7.40;;;10.30;99.90;;;;;;5078497;28;20227;-94
2021/10/02 15:01:44;;;;;;;12.27;7.10;;;10.30;99.90;;;;;;5080034;28;20239;-94
2021/10/02 15:04:37;;;;;;;19.20;8.40;;;10.40;99.90;;;;;;5080002;28;20313;-96
2021/10/02 15:07:10;;;;;;;13.87;7.53;;;10.40;99.90;;;;;;5087287;28;20212;-95
2021/10/02 15:09:43;;;;;;;12.97;7.80;;;10.40;99.90;;;;;;5091945;28;20200;-94
2021/10/02 15:12:16;;;;;;;12.23;7.63;;;10.40;99.90;;;;;;5072642;28;20218;-92
2021/10/02 15:14:59;;;;;;;16.70;8.50;;;10.50;99.90;;;;;;5094842;28;20207;-92
2021/10/02 15:17:33;;;;;;;17.70;9.37;;;10.60;99.90;;;;;;5079730;28;20251;-91
2021/10/02 15:20:11;;;;;;;18.77;8.83;;;10.60;99.90;;;;;;5098864;28;20195;-91
2021/10/02 15:22:46;;;;;;;23.53;9.23;;;10.60;99.90;;;;;;5095846;28;20215;-92
2021/10/02 15:25:19;;;;;;;17.17;9.50;;;10.60;99.90;;;;;;5094299;28;20212;-93
2021/10/02 15:27:59;;;;;;;24.67;10.03;;;10.60;99.90;;;;;;5093273;28;20209;-92
2021/10/02 15:30:32;;;;;;;24.47;11.70;;;10.60;99.90;;;;;;5095839;28;20208;-92
2021/10/02 15:33:05;;;;;;;22.80;11.17;;;10.70;99.90;;;;;;5079715;28;20230;-91
2021/10/02 15:35:40;;;;;;;19.30;10.80;;;10.70;99.90;;;;;;5100197;28;20184;-95
2021/10/02 15:43:23;;;;;;;25.20;11.67;;;10.80;99.90;;;;;;5038242;28;20224;-89
2021/10/02 15:45:56;;;;;;;22.30;12.40;;;10.80;99.90;;;;;;5038981;28;20250;-93
2021/10/02 15:48:33;;;;;;;16.60;10.80;;;11.00;99.90;;;;;;5033302;28;20202;-94